Time;durP1;ratioP1;P1;durP2;ratioP2;P2;SDS_P1;SDS_P2;PMS_P1;PMS_P2;Temp;Humidity;BMP_temperature;BMP_pressure;BME280_temperature;BME280_humidity;BME280_pressure;Samples;Min_cycle;Max_cycle;Signal;HPM_P1;HPM_P2
2022/12/06 00:00:25;;;;;;;12.50;6.13;;;;;;;3.37;100.00;101187.88;5015520;28;20025;-79
2022/12/06 00:02:51;;;;;;;12.23;5.97;;;;;;;3.35;100.00;101188.94;5028449;28;20083;-78
2022/12/06 00:05:16;;;;;;;16.33;7.30;;;;;;;3.41;100.00;101182.38;5028744;28;20554;-77
2022/12/06 00:07:41;;;;;;;14.40;6.67;;;;;;;3.31;100.00;101174.25;5027828;28;20029;-78
2022/12/06 00:10:07;;;;;;;14.37;6.43;;;;;;;3.28;100.00;101177.97;5011848;28;20032;-78
2022/12/06 00:12:32;;;;;;;11.23;5.65;;;;;;;3.33;100.00;101175.84;5027453;28;20506;-79
2022/12/06 00:14:58;;;;;;;11.30;5.73;;;;;;;3.33;100.00;101167.09;5020192;28;20137;-78
2022/12/06 00:17:23;;;;;;;16.67;5.75;;;;;;;3.29;100.00;101171.72;5028005;28;20053;-79
2022/12/06 00:19:48;;;;;;;12.27;5.50;;;;;;;3.33;100.00;101170.56;5011218;28;20053;-79
2022/12/06 00:22:14;;;;;;;12.38;5.63;;;;;;;3.34;100.00;101174.88;5027791;28;20044;-78
2022/12/06 00:24:40;;;;;;;16.17;6.68;;;;;;;3.35;100.00;101168.66;5043952;28;20486;-78
2022/12/06 00:27:05;;;;;;;16.73;7.30;;;;;;;3.38;100.00;101165.81;5027260;28;20021;-78
2022/12/06 00:29:31;;;;;;;15.67;6.60;;;;;;;3.35;100.00;101171.31;5011107;28;20029;-78
2022/12/06 00:31:56;;;;;;;8.73;4.78;;;;;;;3.43;100.00;101162.00;5010917;28;20486;-78
2022/12/06 00:34:21;;;;;;;9.37;4.80;;;;;;;3.43;100.00;101177.84;5007714;28;20029;-78
2022/12/06 00:36:47;;;;;;;13.40;4.97;;;;;;;3.44;100.00;101163.69;5026615;28;20295;-78
2022/12/06 00:39:15;;;;;;;10.48;4.97;;;;;;;3.37;100.00;101161.50;5018697;28;20032;-78
2022/12/06 00:41:41;;;;;;;14.88;5.57;;;;;;;3.31;100.00;101161.91;5010253;28;20037;-78
2022/12/06 00:44:06;;;;;;;;;;;;;;;3.35;100.00;101159.91;5027557;28;20049;-78
2022/12/06 00:46:33;;;;;;;9.50;5.28;;;;;;;3.21;100.00;101155.59;5018591;28;20014;-79
2022/12/06 00:49:00;;;;;;;15.65;5.78;;;;;;;3.26;100.00;101161.38;5017942;28;20033;-78
2022/12/06 00:51:28;;;;;;;10.55;4.70;;;;;;;3.24;100.00;101150.09;5027181;28;20087;-78
2022/12/06 00:53:54;;;;;;;9.98;4.45;;;;;;;3.18;100.00;101145.22;5029777;28;20070;-78
2022/12/06 00:56:19;;;;;;;12.75;5.70;;;;;;;3.23;100.00;101143.13;5046569;28;20407;-78
2022/12/06 00:58:45;;;;;;;11.98;5.40;;;;;;;3.22;100.00;101149.34;5028079;28;20022;-79
2022/12/06 01:01:14;;;;;;;9.73;4.78;;;;;;;3.25;100.00;101145.66;5026198;28;20033;-78
2022/12/06 01:03:41;;;;;;;14.82;5.50;;;;;;;3.23;100.00;101147.53;5007761;28;20022;-78
2022/12/06 01:06:09;;;;;;;8.85;4.90;;;;;;;3.25;100.00;101149.13;5026061;28;20033;-78
2022/12/06 01:08:36;;;;;;;12.07;4.60;;;;;;;3.29;100.00;101155.03;5012504;22;20042;-86
2022/12/06 01:11:02;;;;;;;10.63;4.75;;;;;;;3.30;100.00;101154.94;5018693;28;20056;-86
2022/12/06 01:13:28;;;;;;;10.02;4.95;;;;;;;3.38;100.00;101152.63;5035989;28;20018;-87
2022/12/06 01:15:54;;;;;;;11.98;5.03;;;;;;;3.32;100.00;101155.66;5026712;28;20030;-86
2022/12/06 01:18:22;;;;;;;8.93;4.63;;;;;;;3.37;100.00;101150.94;5010330;28;20474;-87
2022/12/06 01:20:47;;;;;;;8.82;4.53;;;;;;;3.35;100.00;101159.91;5018140;28;20056;-86
2022/12/06 01:23:14;;;;;;;8.67;4.63;;;;;;;3.26;100.00;101148.19;5010843;28;20506;-86
2022/12/06 01:25:49;;;;;;;10.68;4.95;;;;;;;3.23;100.00;101143.13;5027135;28;20030;-86
2022/12/06 01:28:14;;;;;;;9.95;4.32;;;;;;;3.18;100.00;101142.56;5010640;28;20030;-88
2022/12/06 01:30:40;;;;;;;9.93;4.63;;;;;;;3.13;100.00;101139.41;5002699;28;20092;-86
2022/12/06 01:33:05;;;;;;;11.90;4.70;;;;;;;3.19;100.00;101144.28;5010895;28;20068;-85
2022/12/06 01:35:30;;;;;;;11.17;4.93;;;;;;;3.14;100.00;101143.75;5010999;28;20026;-86
2022/12/06 01:37:55;;;;;;;10.60;5.40;;;;;;;3.20;100.00;101143.31;5030687;28;20032;-87
2022/12/06 01:40:21;;;;;;;11.20;4.67;;;;;;;3.23;100.00;101142.25;5021744;28;20026;-86
2022/12/06 01:42:46;;;;;;;13.97;5.17;;;;;;;3.23;100.00;101145.78;4995627;28;20124;-85
2022/12/06 01:45:12;;;;;;;12.48;4.78;;;;;;;3.25;100.00;101141.19;5012012;28;20272;-86
2022/12/06 01:47:40;;;;;;;13.20;4.82;;;;;;;3.21;100.00;101136.25;5011315;28;20033;-86
2022/12/06 01:50:12;;;;;;;14.57;5.15;;;;;;;3.21;100.00;101125.69;5006333;28;20069;-85
2022/12/06 01:53:05;;;;;;;13.80;4.28;;;;;;;3.28;100.00;101130.47;5000382;28;20053;-87
2022/12/06 01:55:34;;;;;;;10.00;4.32;;;;;;;3.20;100.00;101138.03;5015019;28;20486;-86
2022/12/06 01:58:08;;;;;;;13.65;3.97;;;;;;;3.29;100.00;101137.41;5012144;28;20011;-86
2022/12/06 02:00:34;;;;;;;9.48;4.30;;;;;;;3.24;100.00;101126.34;5011988;28;20037;-87
2022/12/06 02:03:00;;;;;;;13.52;4.60;;;;;;;3.28;100.00;101132.25;5014791;28;20030;-88
2022/12/06 02:05:27;;;;;;;12.45;4.80;;;;;;;3.32;100.00;101141.63;5014849;28;20057;-85
2022/12/06 02:07:54;;;;;;;9.50;4.35;;;;;;;3.26;100.00;101126.25;5014684;28;20029;-88
2022/12/06 02:10:19;;;;;;;8.48;4.88;;;;;;;3.26;100.00;101131.53;5014976;28;20037;-89
2022/12/06 02:12:51;;;;;;;10.50;4.88;;;;;;;3.27;100.00;101130.56;4998312;28;20094;-86
2022/12/06 02:15:21;;;;;;;10.68;4.90;;;;;;;3.25;100.00;101125.38;5031583;28;20442;-87
2022/12/06 02:17:56;;;;;;;10.45;4.53;;;;;;;3.27;100.00;101123.47;5015225;28;20048;-87
2022/12/06 02:20:38;;;;;;;9.95;4.65;;;;;;;3.40;100.00;101127.94;5014856;28;20030;-87
2022/12/06 02:23:34;;;;;;;11.55;5.05;;;;;;;3.34;100.00;101122.09;5008903;28;20033;-86
2022/12/06 02:26:18;;;;;;;12.20;5.03;;;;;;;3.33;100.00;101116.94;5000069;28;20033;-90
2022/12/06 02:28:43;;;;;;;10.00;5.07;;;;;;;3.33;100.00;101116.94;5020788;28;20127;-89
2022/12/06 02:31:15;;;;;;;8.67;4.77;;;;;;;3.23;100.00;101108.81;5020602;28;20506;-87
2022/12/06 02:33:51;;;;;;;10.07;5.30;;;;;;;3.27;100.00;101107.63;4997504;28;20040;-86
2022/12/06 02:36:31;;;;;;;9.32;4.53;;;;;;;3.32;100.00;101113.44;5009860;28;20029;-86
2022/12/06 02:39:11;;;;;;;10.90;5.20;;;;;;;3.28;100.00;101108.50;5033134;28;20069;-85
2022/12/06 02:42:05;;;;;;;8.38;4.80;;;;;;;3.27;100.00;101102.38;5015020;28;20036;-88
2022/12/06 02:44:43;;;;;;;11.20;5.20;;;;;;;3.22;100.00;101093.09;5011056;28;20038;-86
2022/12/06 02:47:12;;;;;;;8.40;4.43;;;;;;;3.27;100.00;101102.38;5043573;28;20133;-87
2022/12/06 02:49:46;;;;;;;12.38;5.60;;;;;;;3.23;100.00;101095.63;5013580;28;20113;-87
2022/12/06 02:52:13;;;;;;;9.77;4.45;;;;;;;3.17;100.00;101086.31;5028206;28;20433;-85
2022/12/06 02:54:40;;;;;;;8.43;4.50;;;;;;;3.33;100.00;101091.38;5013097;28;20013;-85
2022/12/06 02:57:05;;;;;;;11.05;5.43;;;;;;;3.29;100.00;101089.06;5026896;28;20041;-85
2022/12/06 02:59:31;;;;;;;9.23;4.57;;;;;;;3.32;100.00;101094.97;5011415;28;20033;-87
2022/12/06 03:02:00;;;;;;;10.27;4.90;;;;;;;3.15;100.00;101087.38;5006680;28;20049;-86
2022/12/06 03:05:15;;;;;;;7.35;4.35;;;;;;;3.27;100.00;101097.09;5024191;28;20445;-86
2022/12/06 03:07:45;;;;;;;10.18;4.68;;;;;;;3.29;100.00;101089.06;5009305;28;20096;-86
2022/12/06 03:10:36;;;;;;;8.75;5.20;;;;;;;3.34;100.00;101092.22;5012738;28;20487;-86
2022/12/06 03:13:29;;;;;;;10.02;5.20;;;;;;;3.21;100.00;101089.63;5018992;28;20112;-86
2022/12/06 03:16:02;;;;;;;12.32;5.57;;;;;;;3.12;100.00;101087.59;5014677;28;20037;-85
2022/12/06 03:18:41;;;;;;;9.63;5.28;;;;;;;3.13;100.00;101078.72;5023238;28;20029;-86
2022/12/06 03:21:12;;;;;;;10.10;5.00;;;;;;;3.18;100.00;101089.81;5010020;28;20482;-84
2022/12/06 03:23:44;;;;;;;9.77;4.43;;;;;;;3.11;100.00;101085.91;5028241;28;20037;-86
2022/12/06 03:26:14;;;;;;;8.25;4.05;;;;;;;3.20;100.00;101085.28;5016744;28;20044;-88
2022/12/06 03:28:41;;;;;;;10.57;4.30;;;;;;;3.12;100.00;101071.78;5029810;28;20034;-86
2022/12/06 03:31:11;;;;;;;6.78;3.38;;;;;;;3.24;100.00;101081.47;5011299;28;20029;-87
2022/12/06 03:33:47;;;;;;;6.68;3.40;;;;;;;3.28;100.00;101074.19;5035859;28;20079;-84
2022/12/06 03:36:13;;;;;;;;;;;;;;;3.25;100.00;101071.75;5011780;28;20044;-85
2022/12/06 03:39:01;;;;;;;11.23;4.18;;;;;;;3.21;100.00;101071.13;5011574;28;19909;-87
2022/12/06 03:41:35;;;;;;;9.63;3.88;;;;;;;3.19;100.00;101064.28;5011000;28;20033;-85
2022/12/06 03:44:00;;;;;;;7.20;3.55;;;;;;;3.22;100.00;101075.47;5020146;28;20045;-85
2022/12/06 03:46:31;;;;;;;9.65;4.53;;;;;;;3.14;100.00;101065.44;5015203;28;20014;-86
2022/12/06 03:49:19;;;;;;;10.55;4.47;;;;;;;3.16;100.00;101060.91;5011666;28;20109;-85
2022/12/06 03:51:45;;;;;;;9.68;4.28;;;;;;;3.19;100.00;101070.41;5010934;28;20033;-86
2022/12/06 03:54:11;;;;;;;6.05;4.53;;;;;;;3.14;100.00;101060.16;5011583;28;20014;-85
2022/12/06 03:56:38;;;;;;;7.28;3.47;;;;;;;3.29;100.00;101067.97;5027957;28;20363;-86
2022/12/06 03:59:07;;;;;;;11.95;3.97;;;;;;;3.16;100.00;101058.28;5028734;28;20661;-84
2022/12/06 04:01:33;;;;;;;5.80;3.42;;;;;;;3.27;100.00;101059.31;5011241;28;20057;-85
2022/12/06 04:03:59;;;;;;;8.57;4.37;;;;;;;3.23;100.00;101058.69;5027717;28;20516;-87
2022/12/06 04:06:25;;;;;;;9.35;4.82;;;;;;;3.24;100.00;101059.53;5027942;28;20504;-86
2022/12/06 04:08:50;;;;;;;8.57;4.35;;;;;;;3.30;100.00;101054.66;5009969;28;20080;-86
2022/12/06 04:11:16;;;;;;;13.60;4.40;;;;;;;3.18;100.00;101050.22;5010366;28;20058;-85
2022/12/06 04:13:41;;;;;;;9.27;4.55;;;;;;;3.24;100.00;101049.81;5011838;28;20026;-84
2022/12/06 04:18:09;;;;;;;10.88;4.88;;;;;;;3.23;100.00;101053.41;5005689;28;20103;-84
2022/12/06 04:18:53;;;;;;;12.93;4.90;;;;;;;3.25;100.00;101054.13;5018616;28;20037;-86
2022/12/06 04:23:57;;;;;;;9.75;4.55;;;;;;;3.18;100.00;101047.59;5038410;28;19917;-85
2022/12/06 04:26:23;;;;;;;9.52;3.72;;;;;;;3.26;100.00;101053.19;5013809;28;20066;-85
2022/12/06 04:39:49;;;;;;;9.82;4.88;;;;;;;3.20;100.00;101032.50;5012404;28;20068;-87
2022/12/06 04:44:58;;;;;;;10.43;4.93;;;;;;;3.22;100.00;101043.78;5005044;28;20034;-85
2022/12/06 04:47:23;;;;;;;10.20;5.00;;;;;;;3.22;100.00;101038.50;5027841;28;20020;-88
2022/12/06 04:49:49;;;;;;;11.90;5.72;;;;;;;3.19;100.00;101036.09;5011906;28;20042;-86
2022/12/06 04:52:15;;;;;;;14.40;7.00;;;;;;;3.21;100.00;101049.16;5013797;28;20048;-86
2022/12/06 04:54:41;;;;;;;13.13;7.00;;;;;;;3.25;100.00;101043.56;5028215;28;20069;-86
2022/12/06 04:57:10;;;;;;;14.73;6.90;;;;;;;3.26;100.00;101047.91;5027113;28;20025;-86
2022/12/06 04:59:39;;;;;;;12.45;6.70;;;;;;;3.19;100.00;101045.81;5012478;28;20426;-85
2022/12/06 05:02:06;;;;;;;14.55;7.03;;;;;;;3.21;100.00;101041.25;5010839;28;20088;-86
2022/12/06 05:04:32;;;;;;;12.95;7.45;;;;;;;3.24;100.00;101046.34;5011232;28;20545;-86
2022/12/06 05:06:57;;;;;;;11.68;6.22;;;;;;;3.28;100.00;101048.66;5011354;28;20022;-86
2022/12/06 05:09:23;;;;;;;11.15;5.93;;;;;;;3.24;100.00;101047.16;5024711;28;20796;-87
2022/12/06 05:11:48;;;;;;;13.65;6.50;;;;;;;3.28;100.00;101045.19;5010480;28;20518;-88
2022/12/06 05:14:14;;;;;;;11.57;6.00;;;;;;;3.26;100.00;101047.91;5011581;28;20046;-87
2022/12/06 05:16:39;;;;;;;10.17;5.63;;;;;;;3.23;100.00;101047.28;5012135;28;20124;-85
2022/12/06 05:19:04;;;;;;;9.97;5.57;;;;;;;3.25;100.00;101050.66;5026359;28;20034;-86
2022/12/06 05:21:30;;;;;;;9.20;5.77;;;;;;;3.24;100.00;101043.69;5011857;28;20030;-85
2022/12/06 05:23:55;;;;;;;9.65;5.45;;;;;;;3.16;100.00;101047.72;5014043;28;20037;-85
2022/12/06 05:26:26;;;;;;;11.93;5.13;;;;;;;3.24;100.00;101054.25;5015569;28;20030;-85
2022/12/06 05:28:52;;;;;;;11.07;6.05;;;;;;;3.25;100.00;101056.75;5015317;28;20091;-85
2022/12/06 05:31:18;;;;;;;;;;;;;;;3.24;100.00;101051.59;5016010;28;20029;-85
2022/12/06 05:33:44;;;;;;;12.75;7.03;;;;;;;3.26;100.00;101055.00;5017069;28;19913;-87
2022/12/06 05:36:18;;;;;;;10.85;6.38;;;;;;;3.20;100.00;101053.59;5015120;28;20097;-87
2022/12/06 05:38:45;;;;;;;12.77;7.18;;;;;;;3.23;100.00;101053.41;5017126;28;20490;-86
2022/12/06 05:41:10;;;;;;;12.75;6.95;;;;;;;3.22;100.00;101048.22;5004956;28;20394;-85
2022/12/06 05:43:35;;;;;;;12.90;7.72;;;;;;;3.26;100.00;101047.06;5017083;28;20041;-91
2022/12/06 05:46:01;;;;;;;10.88;7.15;;;;;;;3.24;100.00;101055.09;5017378;28;20080;-87
2022/12/06 05:48:26;;;;;;;12.53;7.03;;;;;;;3.20;100.00;101053.59;5013560;28;20026;-84
2022/12/06 05:50:52;;;;;;;12.93;6.97;;;;;;;3.21;100.00;101046.53;4996794;28;20398;-85
2022/12/06 05:53:18;;;;;;;12.77;7.13;;;;;;;3.18;100.00;101050.22;5013822;28;20108;-85
2022/12/06 05:55:44;;;;;;;11.15;5.65;;;;;;;3.24;100.00;101046.34;5013678;28;20022;-86
2022/12/06 05:58:09;;;;;;;11.80;6.22;;;;;;;3.26;100.00;101052.34;5012907;28;20482;-86
2022/12/06 06:00:35;;;;;;;12.30;5.47;;;;;;;3.27;100.00;101048.75;5013759;28;20025;-85
2022/12/06 06:03:01;;;;;;;16.10;6.60;;;;;;;3.18;100.00;101055.50;5013631;28;20029;-84
2022/12/06 06:05:27;;;;;;;;;;;;;;;3.28;100.00;101059.19;5020443;28;20031;-84
2022/12/06 06:07:53;;;;;;;12.95;6.20;;;;;;;3.28;100.00;101061.00;5012538;28;20017;-84
2022/12/06 06:10:18;;;;;;;10.27;5.53;;;;;;;3.17;100.00;101053.84;5028376;28;20029;-88
2022/12/06 06:12:44;;;;;;;14.80;6.53;;;;;;;3.21;100.00;101050.03;5011826;28;20087;-87
2022/12/06 06:15:10;;;;;;;9.60;5.03;;;;;;;3.25;100.00;101063.84;5011831;28;20064;-84
2022/12/06 06:17:36;;;;;;;11.75;5.55;;;;;;;3.22;100.00;101064.91;5012079;28;20069;-85
2022/12/06 06:20:06;;;;;;;8.85;5.03;;;;;;;3.29;100.00;101067.97;5013758;28;20045;-86
2022/12/06 06:22:34;;;;;;;8.85;4.07;;;;;;;3.32;100.00;101070.38;5006125;28;20049;-85
2022/12/06 06:24:59;;;;;;;8.48;4.55;;;;;;;3.26;100.00;101069.03;5006212;28;20386;-85
2022/12/06 06:27:27;;;;;;;11.57;5.00;;;;;;;3.21;100.00;101068.50;5014540;28;20033;-84
2022/12/06 06:29:52;;;;;;;11.23;4.82;;;;;;;3.23;100.00;101073.66;5020717;28;20177;-87
2022/12/06 06:32:18;;;;;;;9.30;5.37;;;;;;;3.24;100.00;101070.91;5046095;28;20022;-87
2022/12/06 06:34:43;;;;;;;9.05;4.25;;;;;;;3.17;100.00;101064.38;5035215;28;20265;-89
2022/12/06 06:37:09;;;;;;;7.13;4.05;;;;;;;3.13;100.00;101076.94;5022897;28;20041;-90
2022/12/06 06:39:34;;;;;;;10.07;4.13;;;;;;;3.13;100.00;101078.72;5020528;28;20049;-88
2022/12/06 06:42:00;;;;;;;6.82;3.55;;;;;;;3.22;100.00;101071.97;5018200;28;20169;-86
2022/12/06 06:44:25;;;;;;;5.60;2.70;;;;;;;3.15;100.00;101080.31;5033954;28;20105;-87
2022/12/06 06:46:50;;;;;;;6.50;3.50;;;;;;;3.14;100.00;101076.00;5047911;22;20081;-74
2022/12/06 06:49:17;;;;;;;5.30;2.50;;;;;;;3.09;100.00;101078.13;5023349;28;20426;-72
2022/12/06 06:51:43;;;;;;;10.05;3.55;;;;;;;3.04;100.00;101067.00;5018132;28;20452;-72
2022/12/06 06:54:08;;;;;;;6.93;2.30;;;;;;;3.09;100.00;101072.84;5012427;28;20021;-72
2022/12/06 06:56:34;;;;;;;4.83;2.77;;;;;;;3.05;100.00;101067.88;5026515;28;20049;-72
2022/12/06 06:58:59;;;;;;;2.73;1.97;;;;;;;3.11;100.00;101084.13;5008446;28;20280;-72
2022/12/06 07:01:26;;;;;;;3.13;2.20;;;;;;;3.18;100.00;101081.88;5008307;28;20129;-72
2022/12/06 07:03:52;;;;;;;4.32;2.60;;;;;;;3.13;100.00;101084.84;5011313;28;20343;-72
2022/12/06 07:06:17;;;;;;;7.88;2.90;;;;;;;3.09;100.00;101077.25;5013090;28;20091;-71
2022/12/06 07:08:43;;;;;;;5.07;2.80;;;;;;;3.10;100.00;101079.78;5016510;28;20025;-72
2022/12/06 07:11:09;;;;;;;5.22;3.03;;;;;;;3.16;100.00;101082.00;5012716;28;20065;-72
2022/12/06 07:13:35;;;;;;;;;;;;;;;3.17;100.00;101081.06;5016134;28;20117;-72
2022/12/06 07:16:03;;;;;;;3.85;2.50;;;;;;;3.15;100.00;101082.94;5007928;28;20043;-72
2022/12/06 07:18:28;;;;;;;3.25;2.47;;;;;;;3.19;100.00;101080.97;5006798;28;20018;-71
2022/12/06 07:20:59;;;;;;;5.77;2.93;;;;;;;3.18;100.00;101092.44;5006592;28;20395;-72
2022/12/06 07:23:25;;;;;;;4.47;2.60;;;;;;;3.20;100.00;101087.91;5006620;28;20323;-72
2022/12/06 07:26:03;;;;;;;5.57;3.13;;;;;;;3.16;100.00;101083.78;5023279;28;20049;-72
2022/12/06 07:28:29;;;;;;;4.60;3.28;;;;;;;3.21;100.00;101089.63;5006242;28;20294;-72
2022/12/06 07:30:54;;;;;;;8.00;4.30;;;;;;;3.20;100.00;101090.53;5010592;28;20382;-71
2022/12/06 07:33:20;;;;;;;11.32;3.63;;;;;;;3.16;100.00;101094.34;5011497;28;20034;-72
2022/12/06 07:35:51;;;;;;;10.77;5.10;;;;;;;3.14;100.00;101093.63;5015730;28;20108;-72
2022/12/06 07:38:17;;;;;;;11.30;4.90;;;;;;;3.14;100.00;101091.00;5015856;28;20033;-72
2022/12/06 07:40:43;;;;;;;9.73;4.95;;;;;;;3.14;100.00;101089.19;5007027;28;20022;-72
2022/12/06 07:45:52;;;;;;;9.43;5.15;;;;;;;3.09;100.00;101083.41;5005578;28;20283;-72
2022/12/06 07:48:19;;;;;;;10.27;4.83;;;;;;;3.17;100.00;101090.78;5006615;28;20025;-72
2022/12/06 07:50:46;;;;;;;11.20;5.97;;;;;;;3.13;100.00;101094.56;5015182;28;20041;-71
2022/12/06 07:53:11;;;;;;;9.73;5.95;;;;;;;3.14;100.00;101085.72;5002167;28;20029;-72
2022/12/06 07:55:37;;;;;;;10.93;6.25;;;;;;;3.13;100.00;101089.28;5007902;28;20033;-72
2022/12/06 07:58:02;;;;;;;13.10;7.57;;;;;;;3.02;100.00;101075.97;5034582;28;20020;-71
2022/12/06 08:00:27;;;;;;;12.77;6.90;;;;;;;3.08;100.00;101094.03;5005677;28;20794;-72
2022/12/06 08:02:53;;;;;;;13.37;6.73;;;;;;;3.16;100.00;101091.69;5023406;28;20414;-71
2022/12/06 08:05:18;;;;;;;11.20;6.53;;;;;;;3.13;100.00;101087.47;5019639;28;20033;-71
2022/12/06 08:07:43;;;;;;;16.23;7.87;;;;;;;3.06;100.00;101083.59;5010348;28;20026;-71
2022/12/06 08:10:09;;;;;;;14.83;7.93;;;;;;;3.07;100.00;101095.00;5012367;28;20030;-71
2022/12/06 08:12:34;;;;;;;13.02;6.90;;;;;;;3.10;100.00;101094.78;4996815;28;20018;-72
2022/12/06 08:15:00;;;;;;;15.32;8.10;;;;;;;3.02;100.00;101097.09;5006814;28;20681;-71
2022/12/06 08:17:25;;;;;;;17.47;8.40;;;;;;;3.04;100.00;101096.03;5006699;28;20037;-71
2022/12/06 08:19:51;;;;;;;15.80;7.53;;;;;;;3.08;100.00;101096.69;5005565;28;20669;-72
2022/12/06 08:22:16;;;;;;;17.80;7.80;;;;;;;3.03;100.00;101099.63;5006577;28;20029;-72
2022/12/06 08:24:41;;;;;;;15.37;8.30;;;;;;;3.14;100.00;101096.25;5006875;28;20133;-71
2022/12/06 08:27:07;;;;;;;17.50;8.37;;;;;;;3.11;100.00;101101.72;5006372;28;20124;-71
2022/12/06 08:29:33;;;;;;;16.43;8.60;;;;;;;3.08;100.00;101097.50;5006378;28;20034;-72
2022/12/06 08:31:58;;;;;;;16.23;8.48;;;;;;;3.14;100.00;101096.25;5005431;28;20025;-72
2022/12/06 08:34:24;;;;;;;17.58;8.45;;;;;;;3.04;100.00;101097.84;5006478;28;20394;-71
2022/12/06 08:36:49;;;;;;;18.93;8.30;;;;;;;3.09;100.00;101096.59;5008662;28;20030;-72
2022/12/06 08:39:14;;;;;;;15.80;7.73;;;;;;;3.12;100.00;101100.81;5012008;28;20029;-72
2022/12/06 08:41:56;;;;;;;15.17;7.97;;;;;;;2.98;100.00;101087.72;5005012;28;20493;-72
2022/12/06 08:44:26;;;;;;;15.23;7.68;;;;;;;3.02;100.00;101097.09;5006632;28;20048;-71
2022/12/06 08:46:53;;;;;;;20.15;8.73;;;;;;;3.02;100.00;101097.09;5005863;28;20038;-72
2022/12/06 08:49:19;;;;;;;17.73;9.40;;;;;;;2.87;100.00;101093.72;5018369;28;20029;-72
2022/12/06 08:51:45;;;;;;;16.75;8.43;;;;;;;2.99;100.00;101097.31;5014018;28;20037;-71
2022/12/06 08:54:14;;;;;;;19.60;9.02;;;;;;;3.02;100.00;101097.09;5014288;28;20137;-72
2022/12/06 08:56:39;;;;;;;15.32;8.02;;;;;;;3.06;100.00;101101.22;5004768;28;20041;-72
2022/12/06 08:59:05;;;;;;;17.90;8.98;;;;;;;3.06;100.00;101093.31;5020701;28;20467;-72
2022/12/06 09:01:32;;;;;;;18.50;9.38;;;;;;;3.09;100.00;101101.00;5005707;28;20505;-71
2022/12/06 09:03:59;;;;;;;17.65;8.68;;;;;;;3.06;100.00;101095.94;5006295;28;20032;-71
2022/12/06 09:06:24;;;;;;;16.25;9.15;;;;;;;3.05;100.00;101094.25;5004883;28;20422;-72
2022/12/06 09:08:51;;;;;;;18.05;7.97;;;;;;;3.08;100.00;101100.16;5008300;28;20065;-72
2022/12/06 09:11:17;;;;;;;13.37;8.00;;;;;;;3.10;100.00;101100.06;5034546;28;20073;-72
2022/12/06 09:13:43;;;;;;;20.83;8.60;;;;;;;3.11;100.00;101088.53;5006509;28;20395;-72
2022/12/06 09:16:17;;;;;;;23.65;8.85;;;;;;;3.01;100.00;101090.97;5006577;28;20125;-72
2022/12/06 09:18:44;;;;;;;15.43;8.05;;;;;;;3.09;100.00;101087.81;5006473;28;20124;-72
2022/12/06 09:21:16;;;;;;;18.73;8.70;;;;;;;3.05;100.00;101097.75;5005754;28;20025;-72
2022/12/06 09:23:42;;;;;;;19.38;9.27;;;;;;;3.12;100.00;101098.16;5006557;28;20057;-72
2022/12/06 09:26:08;;;;;;;21.45;9.43;;;;;;;3.15;100.00;101100.59;5005012;28;20018;-72
2022/12/06 09:28:35;;;;;;;18.42;8.60;;;;;;;3.12;100.00;101099.00;5005337;28;20065;-73
2022/12/06 09:31:02;;;;;;;17.40;8.60;;;;;;;3.09;100.00;101109.78;5018159;28;20386;-72
2022/12/06 09:33:27;;;;;;;15.75;8.13;;;;;;;3.11;100.00;101105.25;5010124;28;20034;-72
2022/12/06 09:35:53;;;;;;;17.33;7.77;;;;;;;3.06;100.00;101093.31;5013848;28;20145;-72
2022/12/06 09:38:21;;;;;;;12.87;7.20;;;;;;;3.05;100.00;101096.91;5005109;28;20037;-72
2022/12/06 09:41:04;;;;;;;17.52;8.23;;;;;;;3.05;100.00;101094.25;5006242;28;20322;-72
2022/12/06 09:43:52;;;;;;;15.30;8.98;;;;;;;3.09;100.00;101090.44;5006454;28;20022;-71
2022/12/06 09:46:58;;;;;;;13.18;7.00;;;;;;;3.05;100.00;101089.81;5006079;28;20030;-72
2022/12/06 09:50:02;;;;;;;12.27;7.45;;;;;;;3.04;100.00;101092.56;4969279;28;20076;-74
2022/12/06 09:52:43;;;;;;;14.00;7.25;;;;;;;3.00;100.00;101091.06;5004548;28;20031;-72
2022/12/06 09:55:28;;;;;;;15.52;7.65;;;;;;;3.04;100.00;101093.38;4998835;28;20754;-72
2022/12/06 09:58:02;;;;;;;12.07;5.97;;;;;;;2.97;100.00;101089.50;5006241;28;20073;-72
2022/12/06 10:00:38;;;;;;;15.63;6.90;;;;;;;2.96;100.00;101087.81;5006088;28;20694;-72
2022/12/06 10:03:33;;;;;;;10.63;5.10;;;;;;;2.94;100.00;101092.34;5015477;28;20159;-72
2022/12/06 10:06:04;;;;;;;10.27;5.80;;;;;;;2.86;100.00;101087.59;5002029;28;20041;-72
2022/12/06 10:08:45;;;;;;;12.50;5.70;;;;;;;2.74;100.00;101088.44;5025066;28;20506;-72
2022/12/06 10:11:36;;;;;;;9.70;5.93;;;;;;;2.82;100.00;101083.47;5008643;28;20463;-72
2022/12/06 10:14:28;;;;;;;15.00;7.18;;;;;;;2.75;100.00;101084.84;5009766;28;20112;-71
2022/12/06 10:17:01;;;;;;;15.35;7.50;;;;;;;2.59;100.00;101081.53;4980228;28;20042;-72
2022/12/06 10:19:58;;;;;;;10.52;5.97;;;;;;;2.82;100.00;101074.72;5008128;28;20041;-72
2022/12/06 10:22:35;;;;;;;14.98;6.75;;;;;;;2.76;100.00;101086.53;5008011;28;20655;-72
2022/12/06 10:25:13;;;;;;;11.50;6.78;;;;;;;2.81;100.00;101084.44;5001428;28;20076;-72
2022/12/06 10:27:47;;;;;;;17.23;8.15;;;;;;;2.76;100.00;101086.53;5009285;28;20040;-72
2022/12/06 10:30:15;;;;;;;14.57;7.50;;;;;;;2.83;100.00;101084.31;5008350;28;20040;-72
2022/12/06 10:33:10;;;;;;;15.80;8.32;;;;;;;2.96;100.00;101078.09;5008290;28;20017;-72
2022/12/06 10:35:52;;;;;;;15.32;6.97;;;;;;;2.84;100.00;101073.69;5009417;28;20033;-72
2022/12/06 10:38:34;;;;;;;14.85;7.80;;;;;;;2.85;100.00;101075.34;5009202;28;20115;-71
2022/12/06 10:41:31;;;;;;;16.40;6.70;;;;;;;2.79;100.00;101073.16;5000281;28;20038;-72
2022/12/06 10:44:12;;;;;;;16.50;9.18;;;;;;;2.82;100.00;101058.91;5009355;28;20108;-72
2022/12/06 10:49:58;;;;;;;20.77;8.60;;;;;;;2.79;100.00;101065.22;5021992;28;20396;-72
2022/12/06 10:52:45;;;;;;;12.00;7.18;;;;;;;2.74;100.00;101049.72;5006698;28;20033;-71
2022/12/06 10:55:10;;;;;;;13.43;6.40;;;;;;;2.78;100.00;101058.25;5008788;28;20037;-72
2022/12/06 10:57:42;;;;;;;20.05;7.95;;;;;;;2.74;100.00;101054.16;5009717;28;20076;-72
2022/12/06 11:00:17;;;;;;;14.35;6.78;;;;;;;2.75;100.00;101058.47;5008730;28;20061;-72
2022/12/06 11:03:00;;;;;;;16.27;6.90;;;;;;;2.69;100.00;101053.59;5023371;28;20473;-71
2022/12/06 11:05:53;;;;;;;16.58;6.70;;;;;;;2.78;100.00;101055.63;5012451;28;20508;-72
2022/12/06 11:08:27;;;;;;;16.48;7.53;;;;;;;2.79;100.00;101054.69;5003389;28;20203;-73
2022/12/06 11:10:54;;;;;;;16.60;8.00;;;;;;;2.74;100.00;101047.09;5011198;28;20036;-73
2022/12/06 11:13:43;;;;;;;12.63;6.22;;;;;;;2.73;100.00;101044.53;5028504;28;20494;-74
2022/12/06 11:16:33;;;;;;;17.30;8.00;;;;;;;2.77;100.00;101050.47;5005895;28;20033;-74
2022/12/06 11:19:19;;;;;;;15.07;6.75;;;;;;;2.69;100.00;101043.06;5012462;28;20046;-71
2022/12/06 11:21:53;;;;;;;15.15;7.72;;;;;;;2.77;100.00;101043.41;5010150;28;20029;-71
2022/12/06 11:24:27;;;;;;;17.38;7.15;;;;;;;2.83;100.00;101042.97;5008546;28;20049;-72
2022/12/06 11:27:14;;;;;;;15.13;6.57;;;;;;;2.78;100.00;101036.31;5008078;28;20040;-72
2022/12/06 11:29:41;;;;;;;16.98;7.28;;;;;;;2.74;100.00;101027.81;5007959;28;20037;-72
2022/12/06 11:32:08;;;;;;;15.85;7.20;;;;;;;2.76;100.00;101023.22;5006375;28;20032;-71
2022/12/06 11:34:42;;;;;;;13.30;6.65;;;;;;;2.74;100.00;101025.16;5007873;28;20048;-72
2022/12/06 11:37:17;;;;;;;17.20;7.28;;;;;;;2.86;100.00;101029.59;5006419;28;20022;-71
2022/12/06 11:39:43;;;;;;;13.10;6.88;;;;;;;2.84;100.00;101026.19;5008059;28;20041;-72
2022/12/06 11:42:10;;;;;;;;;;;;;;;2.86;100.00;101018.19;5007909;28;20104;-71
2022/12/06 11:44:44;;;;;;;16.95;8.18;;;;;;;2.88;100.00;101019.78;5007444;28;19913;-71
2022/12/06 11:47:15;;;;;;;18.70;8.30;;;;;;;2.78;100.00;101017.88;5006019;28;20042;-71
2022/12/06 11:49:43;;;;;;;20.95;10.85;;;;;;;2.79;100.00;101020.41;5006136;28;20076;-71
2022/12/06 11:52:21;;;;;;;18.92;10.00;;;;;;;2.84;100.00;101026.19;5006094;28;20483;-72
2022/12/06 11:54:55;;;;;;;19.55;10.55;;;;;;;2.81;100.00;101023.78;5007355;28;20037;-72
2022/12/06 11:57:26;;;;;;;21.15;10.95;;;;;;;2.65;100.00;101025.78;5011566;28;20061;-71